地図

経路データ

SID SEASON NUMBER BASIN SUBBASIN NAME ISO_TIME NATURE LAT LON WMO_WIND WMO_PRES WMO_AGENCY TRACK_TYPE DIST2LAND LANDFALL IFLAG USA_AGENCY USA_ATCF_ID USA_LAT USA_LON USA_RECORD USA_STATUS USA_WIND USA_PRES USA_SSHS USA_R34_NE USA_R34_SE USA_R34_SW USA_R34_NW USA_R50_NE USA_R50_SE USA_R50_SW USA_R50_NW USA_R64_NE USA_R64_SE USA_R64_SW USA_R64_NW USA_POCI USA_ROCI USA_RMW USA_EYE TOKYO_LAT TOKYO_LON TOKYO_GRADE TOKYO_WIND TOKYO_PRES TOKYO_R50_DIR TOKYO_R50_LONG TOKYO_R50_SHORT TOKYO_R30_DIR TOKYO_R30_LONG TOKYO_R30_SHORT TOKYO_LAND CMA_LAT CMA_LON CMA_CAT CMA_WIND CMA_PRES HKO_LAT HKO_LON HKO_CAT HKO_WIND HKO_PRES NEWDELHI_LAT NEWDELHI_LON NEWDELHI_GRADE NEWDELHI_WIND NEWDELHI_PRES NEWDELHI_CI NEWDELHI_DP NEWDELHI_POCI REUNION_LAT REUNION_LON REUNION_TYPE REUNION_WIND REUNION_PRES REUNION_TNUM REUNION_CI REUNION_RMW REUNION_R34_NE REUNION_R34_SE REUNION_R34_SW REUNION_R34_NW REUNION_R50_NE REUNION_R50_SE REUNION_R50_SW REUNION_R50_NW REUNION_R64_NE REUNION_R64_SE REUNION_R64_SW REUNION_R64_NW BOM_LAT BOM_LON BOM_TYPE BOM_WIND BOM_PRES BOM_TNUM BOM_CI BOM_RMW BOM_R34_NE BOM_R34_SE BOM_R34_SW BOM_R34_NW BOM_R50_NE BOM_R50_SE BOM_R50_SW BOM_R50_NW BOM_R64_NE BOM_R64_SE BOM_R64_SW BOM_R64_NW BOM_ROCI BOM_POCI BOM_EYE BOM_POS_METHOD BOM_PRES_METHOD NADI_LAT NADI_LON NADI_CAT NADI_WIND NADI_PRES WELLINGTON_LAT WELLINGTON_LON WELLINGTON_WIND WELLINGTON_PRES DS824_LAT DS824_LON DS824_STAGE DS824_WIND DS824_PRES TD9636_LAT TD9636_LON TD9636_STAGE TD9636_WIND TD9636_PRES TD9635_LAT TD9635_LON TD9635_WIND TD9635_PRES TD9635_ROCI NEUMANN_LAT NEUMANN_LON NEUMANN_CLASS NEUMANN_WIND NEUMANN_PRES MLC_LAT MLC_LON MLC_CLASS MLC_WIND MLC_PRES USA_GUST BOM_GUST BOM_GUST_PER REUNION_GUST REUNION_GUST_PER USA_SEAHGT USA_SEARAD_NE USA_SEARAD_SE USA_SEARAD_SW USA_SEARAD_NW STORM_SPEED STORM_DIR
1970349N11115 1970 155 WP MM NOT_NAMED 1970-12-14 12:00:00 TS 11.0000 115.300 main 336 321 __O___________ -1 11.0000 115.300 1 23 1004 9 59
1970349N11115 1970 155 WP MM NOT_NAMED 1970-12-14 15:00:00 TS 11.2401 115.705 main 321 314 __P___________ -1 11.2401 115.705 1 26 1004 9 57
1970349N11115 1970 155 WP MM NOT_NAMED 1970-12-14 18:00:00 TS 11.5000 116.100 main 317 311 __O___________ -1 11.5000 116.100 1 29 1004 9 54
1970349N11115 1970 155 WP MM NOT_NAMED 1970-12-14 21:00:00 TS 11.7925 116.473 main 315 297 __P___________ -1 11.7925 116.473 1 29 1004 9 49
1970349N11115 1970 155 WP MM NOT_NAMED 1970-12-15 00:00:00 TS 12.1000 116.800 main 300 284 __O___________ -1 12.1000 116.800 1 29 1004 8 44
1970349N11115 1970 155 WP MM NOT_NAMED 1970-12-15 03:00:00 TS 12.3849 117.065 main 284 277 __P___________ -1 12.3849 117.065 1 29 1004 8 39
1970349N11115 1970 155 WP MM NOT_NAMED 1970-12-15 06:00:00 TS 12.7000 117.300 main 283 281 __O___________ -1 12.7000 117.300 1 29 1004 8 35
1970349N11115 1970 155 WP MM NOT_NAMED 1970-12-15 09:00:00 TS 13.0625 117.550 main 288 270 __P___________ -1 13.0625 117.550 1 29 1004 9 31
1970349N11115 1970 155 WP MM NOT_NAMED 1970-12-15 12:00:00 TS 13.5000 117.800 main 270 243 __O___________ -1 13.5000 117.800 1 29 1004 11 26
1970349N11115 1970 155 WP MM NOT_NAMED 1970-12-15 15:00:00 TS 14.0425 118.050 main 233 193 __P___________ -1 14.0425 118.050 1 29 1004 12 24
1970349N11115 1970 155 WP MM NOT_NAMED 1970-12-15 18:00:00 TS 14.6000 118.300 main 193 153 __O___________ -1 14.6000 118.300 1 29 1004 11 25
1970349N11115 1970 155 WP MM NOT_NAMED 1970-12-15 21:00:00 TS 15.0799 118.543 main 153 111 __P___________ -1 15.0799 118.543 1 26 1003 10 28
1970349N11115 1970 155 WP MM NOT_NAMED 1970-12-16 00:00:00 TS 15.5000 118.800 main 111 65 __O___________ -1 15.5000 118.800 1 23 1002 10 34
1970349N11115 1970 155 WP MM NOT_NAMED 1970-12-16 03:00:00 TS 15.8725 119.093 main 65 39 __P___________ -1 15.8725 119.093 1 23 1002 9 40
1970349N11115 1970 155 WP MM NOT_NAMED 1970-12-16 06:00:00 TS 16.2000 119.400 main 39 15 __O___________ -1 16.2000 119.400 1 23 1002 9 45
1970349N11115 1970 155 WP MM NOT_NAMED 1970-12-16 09:00:00 TS 16.5001 119.745 main 24 22 __P___________ -1 16.5001 119.745 1 23 1002 8 44
1970349N11115 1970 155 WP MM NOT_NAMED 1970-12-16 12:00:00 TS 16.8000 120.000 main 39 31 __O___________ -1 16.8000 120.000 1 23 1002 8 26
1970349N11115 1970 155 WP MM NOT_NAMED 1970-12-16 15:00:00 TS 17.1798 120.090 main 31 30 __P___________ -1 17.1798 120.090 1 23 1003 7 0
1970349N11115 1970 155 WP MM NOT_NAMED 1970-12-16 18:00:00 TS 17.5000 120.000 main 33 33 __O___________ -1 17.5000 120.000 1 23 1004 6 325
1970349N11115 1970 155 WP MM NOT_NAMED 1970-12-16 21:00:00 TS 17.6527 119.745 main 64 64 __P___________ -1 17.6527 119.745 1 21 1004 6 289
1970349N11115 1970 155 WP MM NOT_NAMED 1970-12-17 00:00:00 TS 17.7000 119.400 main 96 __O___________ -1 17.7000 119.400 0 19 1005 7 278

デジタル台風データ・検索

IBTrACS Databaseについて

本データベースは、米国NOAAが公開する1842年以降の世界の熱帯低気圧のベストトラックデータアーカイブInternational Best Track Archive for Climate Stewardship (IBTrACS)を、ウェブで閲覧しやすい形式に変換したものです。

最終更新日:2021-10-25